Hay-On-Wye, United Kingdom
Current Conditions -  °F | °C
As of 5:20 PM on Friday 24 Oct 2014 (Local Time) from EGBJ Reporting Station
Rain Showers Rain Showers  
Wind Chill: 57°   Ceiling: Unl
Heat Index: 57°   Visibility: 6mi
Dew Point: 54°   Wind: 12mph
Humidity: 88%   Direction: 300°WNW
Pressure: 29.88"   Gusts: NA
Location:  52.07°N, 3.13°W
Report Text: EGBJ 241620Z 30010KT 9999 VCSH SCT007 SCT012 14/12 Q1012
Loading
Personal Weather Stations






























Interactive Weather Map
Tropical Storm Tracking
New forecast layout! Learn more

10-Day Weather Forecast

Advertisements
Track Severe Weather on mobile